Time;durP1;ratioP1;P1;durP2;ratioP2;P2;SDS_P1;SDS_P2;PMS_P1;PMS_P2;Temp;Humidity;BMP_temperature;BMP_pressure;BME280_temperature;BME280_humidity;BME280_pressure;Samples;Min_cycle;Max_cycle;Signal;HPM_P1;HPM_P2
2022/05/25 00:01:05;;;;;;;6.07;3.97;;;11.30;99.90;;;;;;5131627;27;20031;-57
2022/05/25 00:03:33;;;;;;;5.50;3.70;;;11.30;99.90;;;;;;5132108;27;20053;-57
2022/05/25 00:06:00;;;;;;;7.15;4.00;;;11.50;99.90;;;;;;5152280;27;20034;-58
2022/05/25 00:08:27;;;;;;;8.10;4.43;;;11.80;99.90;;;;;;5152309;27;20087;-56
2022/05/25 00:10:52;;;;;;;6.95;4.28;;;11.30;99.90;;;;;;5152242;27;20027;-57
2022/05/25 00:13:18;;;;;;;7.30;4.53;;;11.50;99.90;;;;;;5152616;27;20457;-57
2022/05/25 00:15:44;;;;;;;7.68;4.57;;;11.40;99.90;;;;;;5151871;27;20038;-57
2022/05/25 00:18:10;;;;;;;7.75;4.00;;;11.30;99.90;;;;;;5151885;27;20073;-57
2022/05/25 00:20:35;;;;;;;6.10;4.43;;;11.60;99.90;;;;;;5152157;27;20070;-58
2022/05/25 00:23:02;;;;;;;8.23;4.82;;;11.50;99.90;;;;;;5148752;27;20031;-57
2022/05/25 00:25:33;;;;;;;5.95;4.50;;;11.50;99.90;;;;;;5131208;27;20074;-57
2022/05/25 00:28:00;;;;;;;8.43;5.00;;;11.40;99.90;;;;;;5131860;27;20430;-57
2022/05/25 00:30:26;;;;;;;5.82;4.43;;;11.60;99.90;;;;;;5137464;27;20035;-57
2022/05/25 00:32:53;;;;;;;7.68;5.10;;;11.10;99.90;;;;;;5130833;27;20063;-57
2022/05/25 00:35:21;;;;;;;8.98;5.32;;;11.40;99.90;;;;;;5130971;27;20034;-57
2022/05/25 00:37:47;;;;;;;8.07;4.72;;;11.20;99.90;;;;;;5128505;27;20039;-57
2022/05/25 00:40:18;;;;;;;8.52;4.80;;;11.70;99.90;;;;;;5131047;27;20113;-57
2022/05/25 00:42:44;;;;;;;7.35;5.30;;;11.30;99.90;;;;;;5130839;27;20047;-57
2022/05/25 00:45:11;;;;;;;7.28;5.13;;;11.30;99.90;;;;;;5129712;27;20042;-57
2022/05/25 00:47:40;;;;;;;9.20;5.72;;;11.00;99.90;;;;;;5130458;27;20471;-57
2022/05/25 00:50:08;;;;;;;7.95;5.43;;;11.20;99.90;;;;;;5142343;27;20039;-57
2022/05/25 00:52:34;;;;;;;8.95;5.15;;;10.80;99.90;;;;;;5144349;27;20035;-57
2022/05/25 00:55:02;;;;;;;7.22;5.63;;;11.30;99.90;;;;;;5130981;27;20046;-57
2022/05/25 00:57:35;;;;;;;8.40;5.90;;;11.10;99.90;;;;;;5130277;27;20459;-57
2022/05/25 01:00:07;;;;;;;9.82;5.80;;;11.10;99.90;;;;;;5132616;27;20074;-57
2022/05/25 01:02:40;;;;;;;8.45;6.43;;;10.80;99.90;;;;;;5152371;27;20043;-57
2022/05/25 01:05:06;;;;;;;8.95;6.22;;;11.00;99.90;;;;;;5156775;27;20053;-57
2022/05/25 01:07:49;;;;;;;8.05;5.20;;;10.70;99.90;;;;;;5156264;27;20358;-57
2022/05/25 01:10:34;;;;;;;8.95;6.40;;;10.60;99.90;;;;;;5156577;27;20038;-57
2022/05/25 01:13:00;;;;;;;9.07;6.30;;;10.50;99.90;;;;;;5156263;27;20034;-57
2022/05/25 01:15:50;;;;;;;8.77;5.65;;;10.70;99.90;;;;;;5156048;27;20099;-57
2022/05/25 01:18:34;;;;;;;9.18;6.65;;;10.50;99.90;;;;;;5137226;27;20077;-57
2022/05/25 01:21:16;;;;;;;7.68;5.93;;;10.50;99.90;;;;;;5149108;27;20031;-57
2022/05/25 01:24:01;;;;;;;9.57;6.35;;;10.40;99.90;;;;;;5134893;27;20075;-58
2022/05/25 01:26:26;;;;;;;;;;;10.40;99.90;;;;;;5137798;27;20043;-57
2022/05/25 01:29:22;;;;;;;9.98;6.68;;;10.50;99.90;;;;;;5134811;27;19968;-57
2022/05/25 01:32:02;;;;;;;10.13;6.57;;;10.40;99.90;;;;;;5135098;27;20393;-57
2022/05/25 01:34:48;;;;;;;12.30;7.35;;;10.60;99.90;;;;;;5135286;27;20054;-57
2022/05/25 01:37:46;;;;;;;9.55;7.07;;;10.30;99.90;;;;;;5134953;27;20039;-57
2022/05/25 01:40:42;;;;;;;11.85;7.40;;;10.30;99.90;;;;;;5134921;27;20039;-57
2022/05/25 01:43:13;;;;;;;9.18;7.28;;;10.50;99.90;;;;;;5133303;27;20509;-57
2022/05/25 01:45:45;;;;;;;12.30;8.30;;;10.10;99.90;;;;;;5134983;27;20063;-57
2022/05/25 01:48:15;;;;;;;9.75;7.80;;;10.40;99.90;;;;;;5135072;27;20042;-56
2022/05/25 01:50:49;;;;;;;13.48;7.53;;;10.30;99.90;;;;;;5134724;27;20478;-57
2022/05/25 01:53:17;;;;;;;11.45;8.23;;;10.20;99.90;;;;;;5134756;27;20039;-57
2022/05/25 01:55:53;;;;;;;12.57;8.00;;;10.30;99.90;;;;;;5135736;27;20118;-57
2022/05/25 01:58:21;;;;;;;12.07;8.80;;;10.30;99.90;;;;;;5155006;27;20061;-57
2022/05/25 02:00:49;;;;;;;12.00;8.55;;;10.20;99.90;;;;;;5155472;27;20075;-57
2022/05/25 02:06:18;;;;;;;11.60;9.10;;;10.20;99.90;;;;;;5146158;27;20042;-57
2022/05/25 02:09:02;;;;;;;11.57;8.83;;;10.00;99.90;;;;;;5133867;27;20031;-57
2022/05/25 02:11:37;;;;;;;12.55;9.20;;;10.20;99.90;;;;;;5134608;27;20039;-57
2022/05/25 02:14:21;;;;;;;11.32;9.00;;;10.20;99.90;;;;;;5134247;27;20118;-57
2022/05/25 02:17:20;;;;;;;13.00;9.70;;;9.90;99.90;;;;;;5137469;27;20080;-57
2022/05/25 02:20:19;;;;;;;13.00;9.52;;;10.00;99.90;;;;;;5133707;27;20039;-57
2022/05/25 02:22:50;;;;;;;12.80;9.55;;;9.80;99.90;;;;;;5133843;27;20058;-57
2022/05/25 02:25:29;;;;;;;13.25;9.38;;;10.10;99.90;;;;;;5134470;27;20035;-57
2022/05/25 02:28:03;;;;;;;14.00;9.60;;;10.20;99.90;;;;;;5132891;27;20031;-57
2022/05/25 02:30:34;;;;;;;14.30;10.60;;;10.20;99.90;;;;;;5134285;27;20027;-57
2022/05/25 02:33:15;;;;;;;16.63;10.48;;;10.10;99.90;;;;;;5133865;27;20077;-57
2022/05/25 02:35:46;;;;;;;14.10;10.02;;;10.00;99.90;;;;;;5132923;27;20442;-57
2022/05/25 02:38:13;;;;;;;14.30;10.23;;;10.10;99.90;;;;;;5133756;27;20031;-57
2022/05/25 02:40:40;;;;;;;15.68;10.93;;;10.00;99.90;;;;;;5133778;27;20053;-57
2022/05/25 02:43:07;;;;;;;15.63;10.57;;;10.00;99.90;;;;;;5135759;27;20081;-57
2022/05/25 02:45:34;;;;;;;14.60;10.52;;;9.70;99.90;;;;;;5154336;27;20034;-58
2022/05/25 02:48:00;;;;;;;14.55;10.70;;;10.10;99.90;;;;;;5154187;27;20030;-57
2022/05/25 02:50:26;;;;;;;12.95;10.35;;;10.00;99.90;;;;;;5153419;27;20103;-58
2022/05/25 02:52:51;;;;;;;15.85;10.77;;;10.00;99.90;;;;;;5130649;27;20057;-56
2022/05/25 02:55:17;;;;;;;18.45;11.80;;;9.90;99.90;;;;;;5133789;27;20092;-57
2022/05/25 02:57:43;;;;;;;14.70;11.00;;;9.90;99.90;;;;;;5127386;27;20493;-57
2022/05/25 03:00:09;;;;;;;16.38;11.68;;;9.90;99.90;;;;;;5133406;27;20097;-56
2022/05/25 03:02:36;;;;;;;19.63;11.27;;;9.60;99.90;;;;;;5133088;27;20561;-57
2022/05/25 03:05:03;;;;;;;14.65;10.82;;;9.90;99.90;;;;;;5133352;27;20042;-57
2022/05/25 03:07:30;;;;;;;16.85;11.10;;;9.60;99.90;;;;;;5133569;27;20047;-57
2022/05/25 03:09:55;;;;;;;16.67;12.20;;;9.60;99.90;;;;;;5133572;27;20470;-57
2022/05/25 03:12:21;;;;;;;17.25;11.18;;;9.90;99.90;;;;;;5133353;27;20031;-57
2022/05/25 03:14:47;;;;;;;18.77;11.52;;;9.80;99.90;;;;;;5133277;27;20457;-57
2022/05/25 03:17:14;;;;;;;17.50;12.07;;;9.90;99.90;;;;;;5133993;27;20130;-57
2022/05/25 03:19:53;;;;;;;16.42;12.38;;;9.70;99.90;;;;;;5153787;27;20103;-57
2022/05/25 03:22:19;;;;;;;15.18;11.80;;;9.80;99.90;;;;;;5153704;27;20046;-57
2022/05/25 03:24:45;;;;;;;15.60;12.23;;;9.60;99.90;;;;;;5153608;27;20492;-56
2022/05/25 03:27:11;;;;;;;19.70;12.18;;;9.70;99.90;;;;;;5152680;27;20038;-57
2022/05/25 03:29:37;;;;;;;16.20;11.25;;;9.80;99.90;;;;;;5153773;27;20027;-57
2022/05/25 03:32:03;;;;;;;14.68;11.38;;;9.70;99.90;;;;;;5153689;27;20039;-57
2022/05/25 03:34:29;;;;;;;14.40;11.30;;;9.40;99.90;;;;;;5153022;27;20050;-57
2022/05/25 03:36:55;;;;;;;14.63;10.35;;;9.40;99.90;;;;;;5138485;27;20474;-57
2022/05/25 03:39:25;;;;;;;20.40;12.18;;;9.50;99.90;;;;;;5139091;27;20099;-57
2022/05/25 03:42:00;;;;;;;17.65;11.85;;;9.60;99.90;;;;;;5143284;27;20042;-57
2022/05/25 03:44:27;;;;;;;19.30;12.90;;;9.40;99.90;;;;;;5132519;27;20043;-57
2022/05/25 03:46:53;;;;;;;16.65;11.95;;;9.50;99.90;;;;;;5123435;27;20110;-58
2022/05/25 03:49:19;;;;;;;17.20;12.13;;;9.60;99.90;;;;;;5132634;27;20104;-57
2022/05/25 03:51:45;;;;;;;19.42;11.98;;;9.80;99.90;;;;;;5132355;27;20050;-57
2022/05/25 03:54:12;;;;;;;16.00;11.80;;;9.70;99.90;;;;;;5132654;27;20035;-58
2022/05/25 03:56:38;;;;;;;17.05;12.38;;;9.80;99.90;;;;;;5152962;27;20079;-57
2022/05/25 03:59:04;;;;;;;18.50;12.73;;;9.40;99.90;;;;;;5152313;27;20485;-57
2022/05/25 04:01:31;;;;;;;18.67;12.27;;;9.70;99.90;;;;;;5134492;27;20066;-57
2022/05/25 04:03:58;;;;;;;16.67;12.30;;;9.70;99.90;;;;;;5152880;27;20103;-58
2022/05/25 04:06:24;;;;;;;19.33;12.32;;;9.80;99.90;;;;;;5117452;27;20481;-57
2022/05/25 04:08:50;;;;;;;17.55;12.43;;;10.00;99.90;;;;;;5153003;27;20033;-58
2022/05/25 04:11:16;;;;;;;19.17;12.90;;;9.10;99.90;;;;;;5152491;27;20034;-57
2022/05/25 04:13:41;;;;;;;22.75;13.05;;;9.80;99.90;;;;;;5152514;27;20031;-57
2022/05/25 04:16:07;;;;;;;20.90;12.55;;;9.90;99.90;;;;;;5134338;27;20035;-57
2022/05/25 04:18:33;;;;;;;19.08;12.77;;;9.60;99.90;;;;;;5114365;27;20038;-57
2022/05/25 04:20:58;;;;;;;19.20;12.50;;;9.90;99.90;;;;;;5136416;27;20074;-57
2022/05/25 04:23:26;;;;;;;16.90;12.63;;;10.30;99.90;;;;;;5130475;27;20055;-57
2022/05/25 04:25:53;;;;;;;19.60;13.27;;;9.60;99.90;;;;;;5131641;27;20363;-57
2022/05/25 04:28:18;;;;;;;20.02;13.05;;;9.90;99.90;;;;;;5117770;27;20043;-57
2022/05/25 04:30:44;;;;;;;19.90;12.98;;;10.10;99.90;;;;;;5131985;27;20046;-57
2022/05/25 04:33:10;;;;;;;19.33;13.00;;;9.90;99.90;;;;;;5133489;27;20501;-57
2022/05/25 04:35:36;;;;;;;19.63;12.60;;;10.10;99.90;;;;;;5143926;27;20061;-57
2022/05/25 04:38:02;;;;;;;18.92;13.07;;;10.10;99.90;;;;;;5130849;27;20393;-57
2022/05/25 04:40:40;;;;;;;18.40;13.25;;;10.10;99.90;;;;;;5131515;27;20070;-58
2022/05/25 04:43:12;;;;;;;21.92;12.75;;;9.80;99.90;;;;;;5131678;27;20043;-57
2022/05/25 04:45:40;;;;;;;21.13;12.93;;;10.20;99.90;;;;;;5131764;27;20480;-57
2022/05/25 04:48:06;;;;;;;20.85;12.90;;;10.50;99.90;;;;;;5131421;27;20110;-57
2022/05/25 04:50:34;;;;;;;17.08;13.00;;;10.00;99.90;;;;;;5131102;27;20130;-57
2022/05/25 04:53:01;;;;;;;20.73;12.75;;;10.20;99.90;;;;;;5127359;27;20057;-58
2022/05/25 04:58:27;;;;;;;21.05;13.00;;;10.50;99.90;;;;;;5130756;27;20036;-57
2022/05/25 05:00:53;;;;;;;19.73;12.88;;;10.30;99.90;;;;;;5130647;27;20039;-57
2022/05/25 05:03:21;;;;;;;21.80;13.60;;;10.20;99.90;;;;;;5131101;27;20054;-57
2022/05/25 05:05:47;;;;;;;20.10;13.35;;;10.60;99.90;;;;;;5129377;27;20081;-57
2022/05/25 05:08:14;;;;;;;22.85;13.75;;;10.30;99.90;;;;;;5130796;27;20031;-56
2022/05/25 05:10:40;;;;;;;20.85;14.75;;;10.40;99.90;;;;;;5129742;27;20038;-57
2022/05/25 05:13:07;;;;;;;22.08;14.60;;;10.80;99.90;;;;;;5130461;27;20046;-58
2022/05/25 05:15:33;;;;;;;24.75;14.75;;;10.50;99.90;;;;;;5120670;27;20114;-58
2022/05/25 05:17:59;;;;;;;25.63;15.13;;;10.60;99.90;;;;;;5131102;27;20042;-58
2022/05/25 05:20:25;;;;;;;26.73;16.20;;;10.70;99.90;;;;;;5131146;27;20051;-58
2022/05/25 05:22:50;;;;;;;25.67;17.02;;;11.10;99.90;;;;;;5131062;27;20053;-57
2022/05/25 05:25:16;;;;;;;27.05;17.35;;;11.00;99.90;;;;;;5131205;27;20035;-57
2022/05/25 05:27:42;;;;;;;31.20;17.65;;;11.30;99.90;;;;;;5130940;27;20046;-58
2022/05/25 05:30:10;;;;;;;25.25;17.92;;;11.20;99.90;;;;;;5130851;27;20084;-58
2022/05/25 05:32:36;;;;;;;29.02;18.58;;;11.10;99.90;;;;;;5130675;27;20027;-58
2022/05/25 05:35:03;;;;;;;28.20;19.27;;;11.10;99.90;;;;;;5130794;27;20043;-59
2022/05/25 05:37:45;;;;;;;31.80;19.95;;;11.30;99.90;;;;;;5134889;27;20173;-58
2022/05/25 05:40:12;;;;;;;28.73;18.80;;;11.30;99.90;;;;;;5151549;27;20057;-58
2022/05/25 05:42:39;;;;;;;28.65;17.83;;;11.30;99.90;;;;;;5151802;27;20074;-58
2022/05/25 05:45:12;;;;;;;25.75;18.65;;;11.50;99.90;;;;;;5151355;27;20104;-58
2022/05/25 05:47:49;;;;;;;26.67;18.75;;;11.40;99.90;;;;;;5151927;27;20078;-58
2022/05/25 05:50:16;;;;;;;28.83;19.17;;;11.40;99.90;;;;;;5154672;27;20062;-58
2022/05/25 05:52:42;;;;;;;26.08;19.20;;;11.50;99.90;;;;;;5134167;27;20536;-58
2022/05/25 05:55:09;;;;;;;26.27;19.23;;;11.80;99.90;;;;;;5134666;27;20077;-57
2022/05/25 05:57:37;;;;;;;34.47;20.02;;;11.70;99.90;;;;;;5144530;27;20401;-58
2022/05/25 06:00:05;;;;;;;28.30;19.38;;;12.10;99.90;;;;;;5152227;27;20042;-58
2022/05/25 06:02:30;;;;;;;27.08;19.20;;;11.90;99.90;;;;;;5134703;27;20099;-57
2022/05/25 06:04:56;;;;;;;27.40;18.75;;;11.90;99.90;;;;;;5130762;27;20043;-58
2022/05/25 06:07:22;;;;;;;27.65;17.90;;;11.90;99.90;;;;;;5134301;27;20102;-57
2022/05/25 06:09:47;;;;;;;26.02;17.90;;;12.10;99.90;;;;;;5134545;27;20070;-58
2022/05/25 06:12:14;;;;;;;26.98;17.98;;;11.90;99.90;;;;;;5119288;27;20038;-57
2022/05/25 06:14:40;;;;;;;27.33;17.17;;;11.80;99.90;;;;;;5134635;27;20145;-58
2022/05/25 06:19:51;;;;;;;28.27;17.48;;;12.20;99.90;;;;;;5134357;27;20439;-57
2022/05/25 06:22:20;;;;;;;27.77;15.85;;;12.30;99.90;;;;;;5134279;27;20038;-57
2022/05/25 06:24:51;;;;;;;22.80;15.15;;;12.30;99.90;;;;;;5134075;27;20114;-57
2022/05/25 06:27:18;;;;;;;26.98;15.77;;;12.30;99.90;;;;;;5134376;27;20035;-58
2022/05/25 06:29:47;;;;;;;21.17;14.35;;;12.30;99.90;;;;;;5133890;27;20043;-57
2022/05/25 06:32:15;;;;;;;22.60;14.77;;;12.40;99.90;;;;;;5134206;27;20035;-58
2022/05/25 06:34:42;;;;;;;25.92;14.75;;;12.50;99.90;;;;;;5133732;27;20062;-58
2022/05/25 06:37:31;;;;;;;23.17;14.70;;;12.50;99.90;;;;;;5112554;27;20035;-58
2022/05/25 06:39:57;;;;;;;21.73;14.80;;;12.50;99.90;;;;;;5133409;27;20173;-58
2022/05/25 06:42:22;;;;;;;22.70;15.05;;;12.70;99.90;;;;;;5133503;27;20184;-58
2022/05/25 06:44:48;;;;;;;20.67;14.13;;;12.70;99.90;;;;;;5133762;27;20027;-58
2022/05/25 06:47:18;;;;;;;21.05;14.23;;;12.90;99.90;;;;;;5133745;27;20600;-58
2022/05/25 06:49:44;;;;;;;22.40;13.38;;;12.80;99.90;;;;;;5127268;27;20042;-58
2022/05/25 06:52:11;;;;;;;23.88;13.13;;;13.00;99.90;;;;;;5129465;27;20371;-58
2022/05/25 06:54:37;;;;;;;19.55;13.02;;;13.00;99.90;;;;;;5131786;27;20047;-58
2022/05/25 06:57:03;;;;;;;21.08;12.93;;;13.10;99.90;;;;;;5123342;27;20392;-58
2022/05/25 06:59:28;;;;;;;22.17;11.85;;;13.00;99.90;;;;;;5131271;27;20096;-58
2022/05/25 07:01:54;;;;;;;18.77;13.52;;;13.10;99.90;;;;;;5128607;27;20031;-58
2022/05/25 07:04:20;;;;;;;23.38;12.80;;;13.30;99.90;;;;;;5131425;27;20439;-58
2022/05/25 07:06:45;;;;;;;16.10;10.85;;;13.30;99.90;;;;;;5132001;27;20074;-59
2022/05/25 07:09:12;;;;;;;17.75;11.43;;;13.30;99.90;;;;;;5132325;27;20070;-58
2022/05/25 07:11:39;;;;;;;14.20;10.23;;;13.30;99.90;;;;;;5133228;27;20044;-58
2022/05/25 07:14:05;;;;;;;16.98;11.43;;;13.40;99.90;;;;;;5133176;27;20096;-58
2022/05/25 07:16:32;;;;;;;18.52;11.38;;;13.50;99.90;;;;;;5123211;27;20050;-58
2022/05/25 07:18:57;;;;;;;18.00;10.55;;;13.60;99.90;;;;;;5124849;27;20074;-59
2022/05/25 07:21:26;;;;;;;17.98;10.75;;;14.20;99.90;;;;;;5121184;27;20317;-59
2022/05/25 07:23:54;;;;;;;14.75;9.23;;;13.80;99.90;;;;;;5123959;27;20050;-58
2022/05/25 07:26:21;;;;;;;17.08;9.65;;;13.90;99.90;;;;;;5123677;27;20037;-58
2022/05/25 07:28:47;;;;;;;19.45;9.93;;;14.10;99.90;;;;;;5124388;27;20084;-58
2022/05/25 07:31:39;;;;;;;18.30;10.10;;;14.00;99.90;;;;;;5123099;27;20467;-58
2022/05/25 07:34:22;;;;;;;13.70;9.40;;;14.30;99.90;;;;;;5095121;27;20133;-58
2022/05/25 07:37:04;;;;;;;14.18;9.38;;;14.50;99.90;;;;;;5121000;27;20047;-58
2022/05/25 07:39:34;;;;;;;14.60;9.02;;;14.40;99.90;;;;;;5122538;27;20492;-58
2022/05/25 07:42:02;;;;;;;16.60;9.13;;;14.50;99.90;;;;;;5124905;27;20179;-59
2022/05/25 07:44:37;;;;;;;18.88;9.07;;;14.30;99.90;;;;;;5124221;27;20082;-58
2022/05/25 07:47:03;;;;;;;14.18;8.65;;;14.40;99.90;;;;;;5123934;27;20027;-58
2022/05/25 07:49:29;;;;;;;13.25;7.82;;;14.50;99.90;;;;;;5124004;27;20031;-59
2022/05/25 07:51:55;;;;;;;14.90;8.05;;;14.60;99.90;;;;;;5122777;27;20033;-58
2022/05/25 07:54:22;;;;;;;11.57;7.75;;;14.80;99.90;;;;;;5123220;27;20490;-58
2022/05/25 07:56:48;;;;;;;13.73;8.77;;;14.90;99.90;;;;;;5122351;27;20042;-58
2022/05/25 07:59:15;;;;;;;12.75;7.93;;;14.90;99.90;;;;;;5123464;27;20051;-58
2022/05/25 08:07:23;;;;;;;15.02;8.43;;;15.00;99.90;;;;;;5121926;27;20035;-58
2022/05/25 08:09:54;;;;;;;11.07;7.32;;;15.40;99.90;;;;;;5124274;27;20032;-59
2022/05/25 08:12:20;;;;;;;8.65;6.68;;;15.50;99.90;;;;;;5120109;27;20031;-58
2022/05/25 08:14:47;;;;;;;9.82;6.30;;;15.70;99.90;;;;;;5122828;27;20470;-58
2022/05/25 08:17:12;;;;;;;9.45;6.22;;;15.80;99.90;;;;;;5119489;27;20027;-58
2022/05/25 08:19:38;;;;;;;10.05;5.65;;;15.90;99.90;;;;;;5120424;27;20072;-59
2022/05/25 08:22:05;;;;;;;7.75;5.40;;;15.70;99.90;;;;;;5119565;27;20114;-59
2022/05/25 08:24:32;;;;;;;11.68;5.88;;;15.70;99.90;;;;;;5123642;27;20035;-58
2022/05/25 08:26:58;;;;;;;10.20;5.30;;;15.80;99.90;;;;;;5115041;27;20031;-60
2022/05/25 08:29:27;;;;;;;10.80;5.28;;;15.90;99.90;;;;;;5128432;27;20043;-61
2022/05/25 08:31:55;;;;;;;11.55;4.85;;;16.10;99.90;;;;;;5129601;27;20039;-60
2022/05/25 08:34:28;;;;;;;7.68;4.75;;;16.20;99.90;;;;;;5132720;27;20502;-60
2022/05/25 08:36:54;;;;;;;13.15;6.10;;;16.30;99.90;;;;;;5129928;27;20039;-60
2022/05/25 08:39:20;;;;;;;152.73;36.35;;;16.40;99.90;;;;;;5127350;27;20043;-61
2022/05/25 08:41:50;;;;;;;10.23;5.32;;;16.30;99.90;;;;;;5124053;27;20079;-60
2022/05/25 08:44:16;;;;;;;8.75;4.78;;;16.30;99.90;;;;;;5129798;27;20039;-58
2022/05/25 08:46:42;;;;;;;10.75;4.63;;;16.20;99.90;;;;;;5112737;27;20027;-61
2022/05/25 08:49:16;;;;;;;11.13;4.53;;;16.60;99.90;;;;;;5130698;27;20031;-60
2022/05/25 08:51:52;;;;;;;;;;;16.40;99.90;;;;;;5128937;27;20023;-59
2022/05/25 08:54:19;;;;;;;7.22;3.53;;;16.70;99.90;;;;;;5139748;27;20011;-60
2022/05/25 08:56:50;;;;;;;6.30;3.50;;;16.80;99.90;;;;;;5122654;27;20043;-59
2022/05/25 08:59:23;;;;;;;7.57;3.20;;;16.80;99.90;;;;;;5130021;27;20482;-59
2022/05/25 09:02:05;;;;;;;4.87;3.07;;;16.90;99.90;;;;;;5128695;27;20082;-60
2022/05/25 09:04:34;;;;;;;7.97;3.58;;;17.10;99.90;;;;;;5129831;27;20054;-60
2022/05/25 09:07:11;;;;;;;6.97;3.30;;;17.00;99.90;;;;;;5137153;27;20526;-60
2022/05/25 09:09:41;;;;;;;6.05;3.20;;;17.10;99.90;;;;;;5143265;27;20435;-60
2022/05/25 09:12:28;;;;;;;7.20;3.17;;;17.20;99.90;;;;;;5131555;27;20447;-60
2022/05/25 09:15:09;;;;;;;7.07;3.10;;;17.20;99.90;;;;;;5131348;27;20050;-60
2022/05/25 09:17:41;;;;;;;8.30;2.60;;;17.40;99.90;;;;;;5131202;27;20498;-60
2022/05/25 09:20:09;;;;;;;7.40;2.67;;;17.50;99.90;;;;;;5131367;27;20580;-59
2022/05/25 09:22:35;;;;;;;5.65;2.88;;;17.60;99.90;;;;;;5131683;27;20087;-60
2022/05/25 09:25:04;;;;;;;5.50;2.67;;;17.70;99.90;;;;;;5134397;27;20505;-60
2022/05/25 09:27:44;;;;;;;5.00;2.65;;;18.10;99.90;;;;;;5135330;27;20039;-60
2022/05/25 09:30:11;;;;;;;8.15;3.38;;;18.30;99.90;;;;;;5135227;27;20046;-61
2022/05/25 09:32:43;;;;;;;8.20;2.80;;;18.60;99.90;;;;;;5135114;27;20035;-62
2022/05/25 09:35:22;;;;;;;6.55;3.00;;;18.80;99.90;;;;;;5138155;27;20046;-60
2022/05/25 09:38:16;;;;;;;7.25;2.55;;;18.70;99.90;;;;;;5155764;27;20058;-61
2022/05/25 09:40:49;;;;;;;7.03;2.90;;;18.40;99.90;;;;;;5145299;27;20054;-61
2022/05/25 09:43:21;;;;;;;7.22;3.10;;;18.20;99.90;;;;;;5134706;27;20038;-59
2022/05/25 09:45:53;;;;;;;14.93;3.55;;;18.10;99.90;;;;;;5124331;27;20172;-60
2022/05/25 09:48:24;;;;;;;6.18;3.40;;;18.00;99.90;;;;;;5135907;27;20039;-60
2022/05/25 09:50:54;;;;;;;6.80;3.33;;;18.10;99.90;;;;;;5149192;27;20046;-58
2022/05/25 09:53:23;;;;;;;8.77;3.35;;;18.20;99.90;;;;;;5149258;27;20043;-59
2022/05/25 09:56:09;;;;;;;11.05;3.63;;;18.40;99.90;;;;;;5142921;27;20039;-59
2022/05/25 09:58:43;;;;;;;5.72;3.30;;;18.20;99.90;;;;;;5132512;27;20117;-60
2022/05/25 10:01:28;;;;;;;;;;;18.30;99.90;;;;;;5131734;27;20039;-58
2022/05/25 10:03:54;;;;;;;8.27;3.77;;;18.20;99.90;;;;;;5131667;27;19967;-59
2022/05/25 10:06:35;;;;;;;8.27;4.10;;;18.50;99.90;;;;;;5139814;27;20071;-60
2022/05/25 10:09:20;;;;;;;8.00;4.00;;;18.20;99.90;;;;;;5125885;27;20039;-59
2022/05/25 10:11:49;;;;;;;8.95;4.50;;;18.50;99.90;;;;;;5132109;27;20067;-59
2022/05/25 10:14:43;;;;;;;7.00;4.15;;;18.60;99.90;;;;;;5137050;27;20158;-59
2022/05/25 10:17:12;;;;;;;9.30;4.78;;;18.90;99.90;;;;;;5145618;27;20035;-59
2022/05/25 10:19:58;;;;;;;7.07;4.88;;;19.10;99.90;;;;;;5134340;27;20035;-59
2022/05/25 10:22:31;;;;;;;7.95;4.18;;;19.40;99.90;;;;;;5134671;27;20162;-60
2022/05/25 10:25:01;;;;;;;6.15;4.38;;;19.30;99.90;;;;;;5138496;27;20057;-59
2022/05/25 10:27:42;;;;;;;8.65;4.38;;;19.40;99.90;;;;;;5155104;27;20045;-59
2022/05/25 10:36:47;;;;;;;6.90;4.32;;;19.10;99.90;;;;;;5132768;27;20043;-60
2022/05/25 10:39:30;;;;;;;8.25;4.70;;;18.70;99.90;;;;;;5136340;27;20079;-59
2022/05/25 10:41:59;;;;;;;10.65;4.93;;;18.80;99.90;;;;;;5124569;27;20054;-59
2022/05/25 10:44:29;;;;;;;6.68;4.43;;;19.00;99.90;;;;;;5107260;27;20067;-59
2022/05/25 10:46:57;;;;;;;10.98;4.28;;;19.00;99.90;;;;;;5126768;27;20510;-60
2022/05/25 10:49:40;;;;;;;9.43;5.10;;;19.30;99.90;;;;;;5126860;27;20566;-60
2022/05/25 10:52:24;;;;;;;7.63;4.45;;;19.20;99.90;;;;;;5125939;27;20087;-59
2022/05/25 10:54:54;;;;;;;8.02;4.53;;;19.50;99.90;;;;;;5124497;27;20132;-60
2022/05/25 10:57:46;;;;;;;9.18;4.65;;;19.00;99.90;;;;;;5123136;27;20043;-62
2022/05/25 11:00:31;;;;;;;8.70;4.90;;;18.60;99.90;;;;;;5107385;27;20050;-59
2022/05/25 11:03:39;;;;;;;7.40;4.35;;;18.40;99.90;;;;;;5120623;27;20125;-60
2022/05/25 11:06:40;;;;;;;9.48;4.25;;;18.20;99.90;;;;;;5099099;27;20055;-60
2022/05/25 11:09:11;;;;;;;5.95;3.80;;;17.90;99.90;;;;;;5045312;28;20443;-61
2022/05/25 11:11:50;;;;;;;9.23;4.30;;;17.90;99.90;;;;;;5107774;27;20402;-59
2022/05/25 11:14:29;;;;;;;8.27;4.07;;;18.10;99.90;;;;;;5124276;27;20034;-59
2022/05/25 11:17:21;;;;;;;7.00;3.63;;;18.00;99.90;;;;;;5121567;27;20039;-59
2022/05/25 11:20:09;;;;;;;9.00;3.83;;;17.70;99.90;;;;;;5121152;27;20353;-59
2022/05/25 11:22:50;;;;;;;7.68;4.03;;;17.60;99.90;;;;;;5103626;27;20031;-59
2022/05/25 11:25:15;;;;;;;8.48;4.20;;;17.30;99.90;;;;;;5120386;27;20498;-59
2022/05/25 11:28:10;;;;;;;9.75;5.05;;;17.10;99.90;;;;;;5122045;27;20039;-60
2022/05/25 11:30:54;;;;;;;;;;;17.00;99.90;;;;;;5116485;27;20051;-60
2022/05/25 11:33:28;;;;;;;9.52;5.43;;;16.80;99.90;;;;;;5122201;27;19962;-60
2022/05/25 11:36:01;;;;;;;7.80;2.33;;;17.10;99.90;;;;;;5120462;27;20394;-59
2022/05/25 11:38:36;;;;;;;8.10;2.10;;;17.50;99.90;;;;;;5121913;27;20031;-61
2022/05/25 11:41:16;;;;;;;3.40;1.58;;;17.60;99.90;;;;;;5122624;27;20035;-59
2022/05/25 11:44:13;;;;;;;4.57;1.83;;;17.60;99.90;;;;;;5121138;27;20047;-59
2022/05/25 11:46:48;;;;;;;6.15;2.20;;;17.80;99.90;;;;;;5119748;27;20035;-59
2022/05/25 11:49:39;;;;;;;12.15;4.32;;;18.00;99.90;;;;;;5120925;27;20019;-59
2022/05/25 11:52:25;;;;;;;6.22;2.90;;;18.60;99.90;;;;;;5121008;27;20027;-59
2022/05/25 11:55:09;;;;;;;6.63;3.70;;;18.60;99.90;;;;;;5097041;27;20095;-60
2022/05/25 11:57:58;;;;;;;5.35;2.55;;;19.00;99.90;;;;;;5115055;27;20061;-61
2022/05/25 12:00:43;;;;;;;5.68;2.17;;;19.50;99.90;;;;;;5115312;27;20691;-59
2022/05/25 12:03:25;;;;;;;5.82;1.35;;;19.80;99.90;;;;;;5115559;27;20039;-61
2022/05/25 12:06:29;;;;;;;5.60;1.40;;;19.70;99.90;;;;;;5115098;27;20039;-60
2022/05/25 12:09:36;;;;;;;5.45;1.92;;;19.90;99.90;;;;;;5115665;27;20031;-59
2022/05/25 12:12:39;;;;;;;6.40;1.45;;;20.20;99.90;;;;;;5088454;27;20054;-60
2022/05/25 12:15:17;;;;;;;6.97;1.10;;;20.30;99.90;;;;;;5114864;27;20046;-59
2022/05/25 12:18:02;;;;;;;7.88;1.40;;;20.10;99.90;;;;;;5116014;27;20277;-60
2022/05/25 12:20:36;;;;;;;4.95;1.08;;;19.50;99.90;;;;;;5114820;27;20066;-61
2022/05/25 12:23:05;;;;;;;;;;;19.40;99.90;;;;;;5115151;27;20035;-60
2022/05/25 12:25:33;;;;;;;5.45;0.80;;;19.10;99.90;;;;;;5114788;27;19920;-61
2022/05/25 12:28:00;;;;;;;5.97;0.95;;;19.20;99.90;;;;;;5115456;27;20035;-61
2022/05/25 12:30:33;;;;;;;11.45;1.42;;;19.40;99.90;;;;;;5115343;27;20034;-60
2022/05/25 12:33:06;;;;;;;3.80;0.80;;;19.40;99.90;;;;;;5114809;27;20030;-61
2022/05/25 12:35:34;;;;;;;5.32;0.60;;;19.30;99.70;;;;;;5114934;27;20046;-61
2022/05/25 12:38:06;;;;;;;5.80;0.73;;;19.30;99.90;;;;;;5115969;27;20122;-60
2022/05/25 12:40:40;;;;;;;5.68;0.75;;;19.50;99.90;;;;;;5114488;27;20092;-60
2022/05/25 12:43:34;;;;;;;2.67;0.55;;;19.60;99.90;;;;;;5112221;27;20394;-61
2022/05/25 12:49:01;;;;;;;5.85;0.60;;;19.30;99.40;;;;;;5117865;27;20058;-62
2022/05/25 12:51:38;;;;;;;5.22;0.50;;;19.60;99.30;;;;;;5117458;27;20039;-59
2022/05/25 12:54:18;;;;;;;2.55;0.50;;;19.90;98.30;;;;;;5116686;27;20064;-60
2022/05/25 12:56:46;;;;;;;5.05;0.60;;;20.30;99.50;;;;;;5098388;27;20069;-60
2022/05/25 12:59:24;;;;;;;3.33;0.70;;;20.50;98.80;;;;;;5117342;27;20031;-60
2022/05/25 13:02:19;;;;;;;6.40;0.55;;;20.60;97.90;;;;;;5113557;27;20039;-60
2022/05/25 13:04:49;;;;;;;4.20;0.60;;;20.40;98.40;;;;;;5115002;27;20074;-59
2022/05/25 13:07:39;;;;;;;1.98;0.50;;;20.50;97.50;;;;;;5117369;27;20539;-60
2022/05/25 13:10:39;;;;;;;5.72;0.80;;;20.10;96.80;;;;;;5116326;27;20479;-60
2022/05/25 13:13:37;;;;;;;4.95;0.70;;;19.80;96.90;;;;;;5114245;27;20078;-61
2022/05/25 13:16:03;;;;;;;6.05;0.60;;;19.70;97.40;;;;;;5100055;27;20028;-59
2022/05/25 13:18:54;;;;;;;2.28;0.40;;;20.10;97.20;;;;;;5117025;27;20030;-59
2022/05/25 13:21:36;;;;;;;2.80;0.80;;;20.80;98.00;;;;;;5114966;27;20485;-59
2022/05/25 13:24:43;;;;;;;4.28;0.63;;;20.70;96.80;;;;;;5116199;27;20046;-62
2022/05/25 13:27:24;;;;;;;5.40;0.70;;;20.20;97.70;;;;;;5114684;27;20492;-60
2022/05/25 13:30:28;;;;;;;4.50;0.47;;;20.30;98.20;;;;;;5115361;27;20031;-59
2022/05/25 13:33:01;;;;;;;4.07;0.55;;;19.90;96.80;;;;;;5116243;27;20050;-61